createdAt,value
2019-04-20T00:01:21.069Z,102605.97
2019-04-20T00:03:47.241Z,102608.98
2019-04-20T00:06:17.437Z,102608.97
2019-04-20T00:08:47.662Z,102599.02
2019-04-20T00:11:25.096Z,102598.14
2019-04-20T00:13:57.211Z,102596.84
2019-04-20T00:16:17.363Z,102601.55
2019-04-20T00:18:50.311Z,102600.27
2019-04-20T00:21:34.407Z,102593.78
2019-04-20T00:24:10.098Z,102591.19
2019-04-20T00:27:04.463Z,102589.03
2019-04-20T00:29:25.342Z,102589.45
2019-04-20T00:31:50.308Z,102581.18
2019-04-20T00:34:16.985Z,102584.62
2019-04-20T00:36:39.073Z,102580.73
2019-04-20T00:39:11.498Z,102585.09
2019-04-20T00:41:43.849Z,102593.74
2019-04-20T00:44:14.205Z,102575.59
2019-04-20T00:46:52.146Z,102573.89
2019-04-20T00:49:25.373Z,102576.83
2019-04-20T00:52:07.643Z,102581.09
2019-04-20T00:54:11.520Z,102581.09
2019-04-20T00:56:41.349Z,102575.05
2019-04-20T00:59:25.424Z,102568.09
2019-04-20T01:02:00.269Z,102568.09
2019-04-20T01:04:29.475Z,102577.16
2019-04-20T01:07:06.070Z,102574.52
2019-04-20T01:09:28.792Z,102566.72
2019-04-20T01:11:58.554Z,102572.64
2019-04-20T01:14:37.915Z,102575.20
2019-04-20T01:17:07.136Z,102575.20
2019-04-20T01:19:29.443Z,102574.31
2019-04-20T01:22:03.639Z,102559.13
2019-04-20T01:24:34.964Z,102567.81
2019-04-20T01:27:01.893Z,102571.69
2019-04-20T01:29:36.893Z,102560.91
2019-04-20T01:32:12.488Z,102572.61
2019-04-20T01:34:41.733Z,102568.24
2019-04-20T01:37:14.492Z,102563.53
2019-04-20T01:39:37.038Z,102567.44
2019-04-20T01:42:00.755Z,102557.06
2019-04-20T01:44:35.393Z,102551.41
2019-04-20T01:47:03.150Z,102557.47
2019-04-20T01:49:33.317Z,102565.53
2019-04-20T01:52:11.016Z,102565.53
2019-04-20T01:54:52.394Z,102564.17
2019-04-20T01:57:26.215Z,102564.45
2019-04-20T02:00:11.195Z,102564.45
2019-04-20T02:02:50.423Z,102568.73
2019-04-20T02:05:23.104Z,102559.17
2019-04-20T02:07:48.815Z,102559.17
2019-04-20T02:10:18.293Z,102563.05
2019-04-20T02:12:51.759Z,102559.22
2019-04-20T02:15:27.820Z,102563.67
2019-04-20T02:18:04.785Z,102566.26
2019-04-20T02:20:37.930Z,102564.17
2019-04-20T02:23:06.504Z,102560.27
2019-04-20T02:25:18.708Z,102560.27
2019-04-20T02:27:53.174Z,102543.25
2019-04-20T02:33:42.823Z,102557.02
2019-04-20T02:36:15.092Z,102556.08
2019-04-20T02:39:11.750Z,102556.08
2019-04-20T02:41:29.836Z,102555.45
2019-04-20T02:44:12.256Z,102558.03
2019-04-20T02:46:27.090Z,102558.03
2019-04-20T02:49:01.035Z,102559.76
2019-04-20T02:56:33.756Z,102561.33
2019-04-20T02:59:15.137Z,102565.42
2019-04-20T03:01:29.197Z,102563.13
2019-04-20T03:03:43.629Z,102561.31
2019-04-20T03:06:19.638Z,102549.98
2019-04-20T03:08:56.406Z,102558.53
2019-04-20T03:11:29.395Z,102560.69
2019-04-20T03:13:59.457Z,102561.87
2019-04-20T03:16:29.947Z,102556.76
2019-04-20T03:19:22.309Z,102566.05
2019-04-20T03:22:00.397Z,102565.56
2019-04-20T03:24:31.083Z,102561.27
2019-04-20T03:26:56.616Z,102567.23
2019-04-20T03:29:24.102Z,102568.09
2019-04-20T03:37:17.469Z,102568.36
2019-04-20T03:39:33.437Z,102568.38
2019-04-20T03:41:50.269Z,102574.22
2019-04-20T03:44:20.978Z,102574.48
2019-04-20T03:46:54.993Z,102576.64
2019-04-20T03:49:42.238Z,102572.21
2019-04-20T03:52:26.201Z,102574.24
2019-04-20T03:54:52.256Z,102571.09
2019-04-20T03:57:34.357Z,102576.21
2019-04-20T04:00:04.715Z,102577.05
2019-04-20T04:02:54.686Z,102577.00
2019-04-20T04:05:23.839Z,102577.37
2019-04-20T04:07:43.196Z,102577.84
2019-04-20T04:10:20.722Z,102567.91
2019-04-20T04:13:09.894Z,102569.70
2019-04-20T04:15:46.761Z,102577.00
2019-04-20T04:18:19.766Z,102579.69
2019-04-20T04:20:50.024Z,102576.75
2019-04-20T04:23:32.944Z,102574.97
2019-04-20T04:26:00.673Z,102578.30
2019-04-20T04:28:35.271Z,102576.51
2019-04-20T04:31:04.205Z,102580.38
2019-04-20T04:36:00.458Z,102585.86
2019-04-20T04:38:39.199Z,102578.53
2019-04-20T04:43:38.891Z,102576.81
2019-04-20T04:45:46.948Z,102572.45
2019-04-20T04:48:22.160Z,102579.33
2019-04-20T04:50:52.716Z,102577.70
2019-04-20T04:53:28.902Z,102580.02
2019-04-20T04:55:54.676Z,102584.92
2019-04-20T04:58:17.396Z,102582.66
2019-04-20T05:00:46.792Z,102583.27
2019-04-20T05:03:37.572Z,102591.49
2019-04-20T05:06:08.336Z,102589.83
2019-04-20T05:08:30.410Z,102574.06
2019-04-20T05:10:54.144Z,102578.38
2019-04-20T05:13:27.651Z,102588.05
2019-04-20T05:16:07.523Z,102587.22
2019-04-20T05:18:45.085Z,102582.97
2019-04-20T05:21:15.320Z,102587.80
2019-04-20T05:23:38.793Z,102585.39
2019-04-20T05:26:19.994Z,102578.16
2019-04-20T05:28:43.905Z,102582.11
2019-04-20T05:31:05.005Z,102585.35
2019-04-20T05:33:59.701Z,102585.35
2019-04-20T05:36:23.290Z,102581.51
2019-04-20T05:38:54.625Z,102587.58
2019-04-20T05:41:21.889Z,102583.51
2019-04-20T05:43:56.142Z,102568.44
2019-04-20T05:46:26.292Z,102582.36
2019-04-20T05:49:02.575Z,102582.36
2019-04-20T05:51:36.781Z,102573.31
2019-04-20T05:54:02.356Z,102576.80
2019-04-20T05:56:35.312Z,102576.81
2019-04-20T05:58:59.408Z,102566.97
2019-04-20T06:01:34.424Z,102566.97
2019-04-20T06:03:59.337Z,102574.81
2019-04-20T06:06:35.466Z,102578.28
2019-04-20T06:09:06.800Z,102572.67
2019-04-20T06:11:32.956Z,102566.63
2019-04-20T06:14:03.739Z,102577.00
2019-04-20T06:16:50.105Z,102573.08
2019-04-20T06:19:26.401Z,102572.17
2019-04-20T06:21:52.994Z,102573.83
2019-04-20T06:24:24.901Z,102575.07
2019-04-20T06:26:59.502Z,102574.56
2019-04-20T06:29:23.631Z,102571.42
2019-04-20T06:31:59.122Z,102569.14
2019-04-20T06:34:35.523Z,102568.17
2019-04-20T06:36:57.319Z,102573.22
2019-04-20T06:42:09.922Z,102575.59
2019-04-20T06:52:24.365Z,102568.80
2019-04-20T06:55:05.082Z,102574.80
2019-04-20T06:57:40.369Z,102573.80
2019-04-20T07:02:44.213Z,102576.47
2019-04-20T07:05:22.121Z,102578.87
2019-04-20T07:07:48.110Z,102585.61
2019-04-20T07:10:19.774Z,102581.16
2019-04-20T07:12:42.502Z,102577.50
2019-04-20T07:15:17.752Z,102577.28
2019-04-20T07:20:30.852Z,102577.70
2019-04-20T07:25:40.793Z,102575.48
2019-04-20T07:28:07.640Z,102573.19
2019-04-20T07:30:35.123Z,102576.80
2019-04-20T07:33:06.953Z,102577.84
2019-04-20T07:35:35.398Z,102578.16
2019-04-20T07:40:35.483Z,102576.70
2019-04-20T07:43:04.713Z,102576.64
2019-04-20T07:45:33.245Z,102573.33
2019-04-20T07:48:13.555Z,102579.11
2019-04-20T07:50:31.777Z,102575.19
2019-04-20T07:53:04.353Z,102576.67
2019-04-20T07:55:44.548Z,102573.34
2019-04-20T07:58:02.185Z,102572.76
2019-04-20T08:00:53.321Z,102577.34
2019-04-20T08:03:35.183Z,102572.34
2019-04-20T08:05:55.254Z,102570.58
2019-04-20T08:08:28.242Z,102567.08
2019-04-20T08:11:06.225Z,102567.86
2019-04-20T08:13:38.771Z,102569.63
2019-04-20T08:16:06.382Z,102566.91
2019-04-20T08:18:39.981Z,102573.92
2019-04-20T08:21:09.860Z,102576.20
2019-04-20T08:23:40.195Z,102568.30
2019-04-20T08:25:56.899Z,102570.02
2019-04-20T08:28:33.375Z,102564.20
2019-04-20T08:31:10.415Z,102560.83
2019-04-20T08:34:06.486Z,102562.14
2019-04-20T08:36:27.224Z,102550.50
2019-04-20T08:39:23.210Z,102546.88
2019-04-20T08:41:23.233Z,102551.80
2019-04-20T08:43:58.683Z,102548.84
2019-04-20T08:46:30.951Z,102545.20
2019-04-20T08:48:55.895Z,102547.59
2019-04-20T08:51:38.640Z,102548.47
2019-04-20T08:53:57.023Z,102542.16
2019-04-20T08:56:18.792Z,102538.41
2019-04-20T08:58:39.136Z,102535.16
2019-04-20T09:01:10.603Z,102534.78
2019-04-20T09:03:51.294Z,102532.27
2019-04-20T09:06:22.366Z,102528.27
2019-04-20T09:08:50.335Z,102527.29
2019-04-20T09:11:24.988Z,102527.20
2019-04-20T09:13:46.232Z,102523.41
2019-04-20T09:16:11.008Z,102529.44
2019-04-20T09:18:50.537Z,102529.45
2019-04-20T09:21:26.700Z,102515.72
2019-04-20T09:24:11.946Z,102526.16
2019-04-20T09:26:37.546Z,102522.44
2019-04-20T09:29:17.068Z,102521.45
2019-04-20T09:31:41.690Z,102520.63
2019-04-20T09:34:16.227Z,102513.66
2019-04-20T09:36:46.265Z,102515.22
2019-04-20T09:39:29.570Z,102512.69
2019-04-20T09:42:01.954Z,102508.13
2019-04-20T09:44:38.445Z,102507.84
2019-04-20T09:47:04.673Z,102511.80
2019-04-20T09:49:42.562Z,102504.36
2019-04-20T09:52:17.233Z,102502.66
2019-04-20T09:54:52.553Z,102507.06
2019-04-20T09:57:21.776Z,102502.05
2019-04-20T09:59:49.762Z,102500.81
2019-04-20T10:02:13.122Z,102495.91
2019-04-20T10:04:35.453Z,102495.81
2019-04-20T10:07:09.288Z,102491.44
2019-04-20T10:09:40.820Z,102493.47
2019-04-20T10:12:05.662Z,102493.68
2019-04-20T10:14:35.211Z,102489.67
2019-04-20T10:17:05.573Z,102489.02
2019-04-20T10:19:37.679Z,102489.39
2019-04-20T10:22:04.786Z,102488.50
2019-04-20T10:24:34.633Z,102482.06
2019-04-20T10:27:03.471Z,102484.19
2019-04-20T10:29:33.477Z,102483.55
2019-04-20T10:32:06.805Z,102480.50
2019-04-20T10:34:32.778Z,102480.34
2019-04-20T10:37:03.889Z,102474.30
2019-04-20T10:39:34.325Z,102479.62
2019-04-20T10:42:04.267Z,102478.61
2019-04-20T10:44:32.980Z,102478.19
2019-04-20T10:47:02.880Z,102472.52
2019-04-20T10:49:31.596Z,102475.69
2019-04-20T10:52:00.270Z,102469.08
2019-04-20T10:54:30.170Z,102470.52
2019-04-20T10:56:59.455Z,102467.11
2019-04-20T10:59:28.170Z,102471.23
2019-04-20T11:01:57.987Z,102465.30
2019-04-20T11:04:26.684Z,102458.75
2019-04-20T11:06:56.628Z,102457.83
2019-04-20T11:09:25.253Z,102460.45
2019-04-20T11:11:54.469Z,102457.95
2019-04-20T11:14:29.913Z,102460.56
2019-04-20T11:16:54.127Z,102458.69
2019-04-20T11:19:23.279Z,102458.64
2019-04-20T11:21:52.387Z,102456.48
2019-04-20T11:24:22.411Z,102453.15
2019-04-20T11:26:52.071Z,102452.20
2019-04-20T11:29:24.178Z,102449.63
2019-04-20T11:31:55.658Z,102453.61
2019-04-20T11:34:28.603Z,102446.28
2019-04-20T11:36:53.453Z,102442.63
2019-04-20T11:39:23.546Z,102437.36
2019-04-20T11:41:53.936Z,102444.02
2019-04-20T11:44:23.753Z,102436.73
2019-04-20T11:46:52.970Z,102433.86
2019-04-20T11:49:25.405Z,102434.16
2019-04-20T11:51:55.294Z,102431.16
2019-04-20T11:54:24.482Z,102426.12
2019-04-20T11:56:53.337Z,102422.69
2019-04-20T11:59:23.477Z,102424.86
2019-04-20T12:02:07.659Z,102419.59
2019-04-20T12:04:47.461Z,102417.27
2019-04-20T12:07:11.151Z,102411.82
2019-04-20T12:09:40.127Z,102411.16
2019-04-20T12:12:20.283Z,102414.17
2019-04-20T12:14:39.258Z,102408.08
2019-04-20T12:17:08.005Z,102409.22
2019-04-20T12:19:37.854Z,102409.58
2019-04-20T12:22:07.612Z,102403.80
2019-04-20T12:24:36.447Z,102393.95
2019-04-20T12:27:05.060Z,102399.08
2019-04-20T12:29:34.061Z,102395.19
2019-04-20T12:32:05.450Z,102388.71
2019-04-20T12:34:33.073Z,102381.30
2019-04-20T12:37:02.895Z,102377.88
2019-04-20T12:39:31.474Z,102380.34
2019-04-20T12:42:03.912Z,102370.33
2019-04-20T12:44:30.326Z,102370.53
2019-04-20T12:46:59.634Z,102373.96
2019-04-20T12:49:29.515Z,102372.87
2019-04-20T12:52:01.653Z,102365.52
2019-04-20T12:54:29.029Z,102371.05
2019-04-20T12:56:58.601Z,102365.16
2019-04-20T12:59:27.574Z,102357.92
2019-04-20T13:01:57.521Z,102360.70
2019-04-20T13:04:26.798Z,102351.28
2019-04-20T13:06:57.652Z,102347.16
2019-04-20T13:09:30.501Z,102347.09
2019-04-20T13:12:05.301Z,102350.34
2019-04-20T13:14:35.777Z,102345.20
2019-04-20T13:17:04.404Z,102340.52
2019-04-20T13:19:33.318Z,102335.92
2019-04-20T13:22:03.238Z,102338.79
2019-04-20T13:24:32.442Z,102329.06
2019-04-20T13:27:02.637Z,102339.73
2019-04-20T13:29:31.419Z,102329.61
2019-04-20T13:32:00.238Z,102339.03
2019-04-20T13:34:28.892Z,102333.11
2019-04-20T13:36:58.153Z,102327.06
2019-04-20T13:39:26.915Z,102329.24
2019-04-20T13:42:03.432Z,102323.16
2019-04-20T13:44:27.139Z,102319.06
2019-04-20T13:46:56.750Z,102317.53
2019-04-20T13:49:25.527Z,102313.11
2019-04-20T13:51:54.868Z,102302.95
2019-04-20T13:54:26.417Z,102307.52
2019-04-20T13:56:55.763Z,102298.59
2019-04-20T13:59:32.436Z,102295.20
2019-04-20T14:02:02.689Z,102293.66
2019-04-20T14:04:34.661Z,102290.68
2019-04-20T14:07:03.864Z,102284.84
2019-04-20T14:09:33.219Z,102281.45
2019-04-20T14:12:14.207Z,102284.78
2019-04-20T14:14:33.061Z,102280.06
2019-04-20T14:17:01.634Z,102273.12
2019-04-20T14:19:31.425Z,102274.42
2019-04-20T14:22:00.207Z,102271.31
2019-04-20T14:24:29.003Z,102270.51
2019-04-20T14:26:58.993Z,102270.94
2019-04-20T14:29:27.589Z,102260.73
2019-04-20T14:31:59.012Z,102260.81
2019-04-20T14:34:26.960Z,102261.70
2019-04-20T14:36:57.004Z,102253.55
2019-04-20T14:39:26.065Z,102249.34
2019-04-20T14:41:56.258Z,102248.41
2019-04-20T14:44:25.705Z,102249.84
2019-04-20T14:46:54.279Z,102250.32
2019-04-20T14:49:23.052Z,102248.10
2019-04-20T14:51:56.408Z,102242.30
2019-04-20T14:54:25.548Z,102238.91
2019-04-20T14:56:54.213Z,102238.35
2019-04-20T14:59:27.497Z,102236.39
2019-04-20T15:01:58.662Z,102232.21
2019-04-20T15:04:30.156Z,102234.99
2019-04-20T15:07:00.184Z,102232.84
2019-04-20T15:09:28.864Z,102228.18
2019-04-20T15:11:57.439Z,102221.05
2019-04-20T15:14:26.895Z,102222.58
2019-04-20T15:16:56.350Z,102225.85
2019-04-20T15:19:27.551Z,102222.23
2019-04-20T15:22:07.600Z,102225.59
2019-04-20T15:24:36.119Z,102225.84
2019-04-20T15:27:05.111Z,102228.48
2019-04-20T15:29:33.830Z,102221.83
2019-04-20T15:32:04.054Z,102217.64
2019-04-20T15:34:32.961Z,102221.11
2019-04-20T15:37:02.476Z,102220.72
2019-04-20T15:39:31.257Z,102217.98
2019-04-20T15:42:01.184Z,102219.05
2019-04-20T15:44:31.340Z,102216.06
2019-04-20T15:47:01.348Z,102216.73
2019-04-20T15:49:31.440Z,102215.88
2019-04-20T15:52:01.651Z,102206.16
2019-04-20T15:54:31.548Z,102208.69
2019-04-20T15:57:04.544Z,102207.99
2019-04-20T15:59:30.880Z,102203.55
2019-04-20T16:02:01.143Z,102201.36
2019-04-20T16:04:48.717Z,102196.92
2019-04-20T16:07:19.252Z,102192.66
2019-04-20T16:09:48.480Z,102196.50
2019-04-20T16:12:18.468Z,102191.57
2019-04-20T16:14:47.138Z,102184.47
2019-04-20T16:17:17.275Z,102183.89
2019-04-20T16:19:54.486Z,102186.35
2019-04-20T16:22:19.651Z,102182.28
2019-04-20T16:24:53.742Z,102177.02
2019-04-20T16:27:29.893Z,102178.93
2019-04-20T16:29:59.901Z,102174.55
2019-04-20T16:32:30.096Z,102177.83
2019-04-20T16:35:00.249Z,102178.98
2019-04-20T16:37:30.576Z,102182.87
2019-04-20T16:40:01.084Z,102173.67
2019-04-20T16:42:30.375Z,102173.08
2019-04-20T16:44:59.219Z,102173.02
2019-04-20T16:47:28.100Z,102169.67
2019-04-20T16:49:57.083Z,102166.95
2019-04-20T16:52:25.765Z,102160.58
2019-04-20T16:54:55.558Z,102166.05
2019-04-20T16:57:25.529Z,102168.33
2019-04-20T16:59:57.523Z,102160.61
2019-04-20T17:02:24.925Z,102166.45
2019-04-20T17:04:54.995Z,102167.30
2019-04-20T17:07:28.996Z,102163.95
2019-04-20T17:09:57.983Z,102161.56
2019-04-20T17:12:28.059Z,102162.73
2019-04-20T17:14:57.784Z,102164.78
2019-04-20T17:17:27.474Z,102164.57
2019-04-20T17:19:57.564Z,102162.16
2019-04-20T17:22:27.576Z,102166.28
2019-04-20T17:24:56.543Z,102159.77
2019-04-20T17:27:42.978Z,102163.20
2019-04-20T17:30:27.188Z,102168.30
2019-04-20T17:33:13.886Z,102161.61
2019-04-20T17:35:52.961Z,102158.11
2019-04-20T17:38:14.355Z,102161.87
2019-04-20T17:41:01.363Z,102169.25
2019-04-20T17:43:23.003Z,102168.92
2019-04-20T17:45:55.777Z,102174.74
2019-04-20T17:48:28.205Z,102173.25
2019-04-20T17:51:07.911Z,102175.59
2019-04-20T17:53:29.359Z,102172.45
2019-04-20T17:55:51.174Z,102169.50
2019-04-20T17:58:27.880Z,102169.92
2019-04-20T18:01:20.235Z,102170.25
2019-04-20T18:04:11.529Z,102174.52
2019-04-20T18:06:25.455Z,102169.64
2019-04-20T18:08:53.568Z,102173.25
2019-04-20T18:11:14.971Z,102168.09
2019-04-20T18:13:40.635Z,102167.23
2019-04-20T18:16:40.646Z,102170.58
2019-04-20T18:19:07.478Z,102170.50
2019-04-20T18:21:35.875Z,102176.11
2019-04-20T18:24:13.739Z,102176.28
2019-04-20T18:26:52.048Z,102177.19
2019-04-20T18:29:25.996Z,102175.09
2019-04-20T18:31:53.346Z,102180.54
2019-04-20T18:34:28.967Z,102184.64
2019-04-20T18:36:56.625Z,102187.57
2019-04-20T18:39:38.675Z,102184.88
2019-04-20T18:42:06.691Z,102185.83
2019-04-20T18:44:30.537Z,102183.33
2019-04-20T18:47:19.819Z,102187.54
2019-04-20T18:49:38.512Z,102178.08
2019-04-20T18:51:57.760Z,102183.71
2019-04-20T18:54:31.367Z,102181.79
2019-04-20T18:56:58.117Z,102182.20
2019-04-20T18:59:35.355Z,102186.42
2019-04-20T19:01:59.140Z,102190.58
2019-04-20T19:04:28.408Z,102193.88
2019-04-20T19:06:57.387Z,102195.16
2019-04-20T19:09:30.326Z,102200.02
2019-04-20T19:12:02.275Z,102201.36
2019-04-20T19:14:37.160Z,102197.89
2019-04-20T19:17:26.449Z,102199.09
2019-04-20T19:20:02.350Z,102205.20
2019-04-20T19:22:32.119Z,102195.35
2019-04-20T19:25:02.138Z,102199.27
2019-04-20T19:27:39.972Z,102203.25
2019-04-20T19:30:15.192Z,102199.22
2019-04-20T19:32:45.314Z,102201.70
2019-04-20T19:35:18.806Z,102190.77
2019-04-20T19:37:48.623Z,102193.00
2019-04-20T19:40:16.153Z,102190.05
2019-04-20T19:42:49.274Z,102193.03
2019-04-20T19:45:31.694Z,102194.34
2019-04-20T19:47:54.751Z,102187.42
2019-04-20T19:50:35.503Z,102185.63
2019-04-20T19:53:12.493Z,102187.46
2019-04-20T19:55:27.539Z,102187.75
2019-04-20T19:57:58.841Z,102187.13
2019-04-20T20:00:14.686Z,102178.80
2019-04-20T20:02:43.568Z,102186.86
2019-04-20T20:05:16.314Z,102179.36
2019-04-20T20:07:47.516Z,102178.69
2019-04-20T20:10:14.628Z,102183.23
2019-04-20T20:12:49.442Z,102184.37
2019-04-20T20:15:22.296Z,102186.66
2019-04-20T20:18:05.823Z,102181.48
2019-04-20T20:20:38.210Z,102181.27
2019-04-20T20:22:50.568Z,102183.19
2019-04-20T20:25:17.017Z,102181.09
2019-04-20T20:27:50.305Z,102183.00
2019-04-20T20:30:24.518Z,102185.43
2019-04-20T20:33:04.512Z,102182.13
2019-04-20T20:35:23.502Z,102190.05
2019-04-20T20:37:56.972Z,102188.41
2019-04-20T20:40:34.745Z,102190.20
2019-04-20T20:43:10.659Z,102194.46
2019-04-20T20:45:38.342Z,102186.84
2019-04-20T20:48:17.738Z,102194.16
2019-04-20T20:50:48.847Z,102197.86
2019-04-20T20:53:12.532Z,102199.27
2019-04-20T20:55:42.334Z,102195.70
2019-04-20T20:58:11.557Z,102197.72
2019-04-20T21:00:45.816Z,102199.53
2019-04-20T21:03:09.135Z,102197.02
2019-04-20T21:05:35.735Z,102199.66
2019-04-20T21:08:05.818Z,102206.22
2019-04-20T21:10:37.544Z,102196.61
2019-04-20T21:13:08.559Z,102197.31
2019-04-20T21:15:38.206Z,102195.56
2019-04-20T21:18:31.313Z,102202.14
2019-04-20T21:21:13.019Z,102200.78
2019-04-20T21:23:41.274Z,102191.77
2019-04-20T21:26:17.002Z,102201.09
2019-04-20T21:28:42.125Z,102202.34
2019-04-20T21:31:14.680Z,102191.31
2019-04-20T21:33:42.776Z,102193.56
2019-04-20T21:36:13.576Z,102195.31
2019-04-20T21:38:44.314Z,102193.02
2019-04-20T21:41:16.557Z,102198.83
2019-04-20T21:43:44.670Z,102193.86
2019-04-20T21:46:14.012Z,102190.89
2019-04-20T21:48:55.887Z,102195.11
2019-04-20T21:51:25.625Z,102189.95
2019-04-20T21:53:54.698Z,102194.67
2019-04-20T21:56:22.014Z,102189.56
2019-04-20T21:58:57.493Z,102194.23
2019-04-20T22:01:30.486Z,102193.56
2019-04-20T22:03:54.313Z,102186.83
2019-04-20T22:06:24.442Z,102189.02
2019-04-20T22:08:57.724Z,102191.00
2019-04-20T22:11:24.064Z,102179.41
2019-04-20T22:13:54.426Z,102181.56
2019-04-20T22:16:25.524Z,102178.20
2019-04-20T22:19:14.560Z,102180.13
2019-04-20T22:21:35.488Z,102173.12
2019-04-20T22:24:06.559Z,102176.75
2019-04-20T22:26:33.707Z,102174.02
2019-04-20T22:28:56.302Z,102169.07
2019-04-20T22:31:26.284Z,102175.35
2019-04-20T22:33:56.260Z,102168.92
2019-04-20T22:36:34.370Z,102163.02
2019-04-20T22:39:11.557Z,102168.31
2019-04-20T22:41:48.241Z,102165.22
2019-04-20T22:44:17.389Z,102165.63
2019-04-20T22:46:44.038Z,102163.59
2019-04-20T22:49:29.464Z,102158.95
2019-04-20T22:51:54.952Z,102159.21
2019-04-20T22:54:29.755Z,102159.66
2019-04-20T22:56:54.866Z,102149.95
2019-04-20T22:59:19.391Z,102153.89
2019-04-20T23:01:48.581Z,102147.97
2019-04-20T23:04:15.044Z,102144.97
2019-04-20T23:06:48.116Z,102154.95
2019-04-20T23:09:14.855Z,102150.95
2019-04-20T23:11:43.714Z,102149.66
2019-04-20T23:14:12.566Z,102145.11
2019-04-20T23:16:47.163Z,102142.91
2019-04-20T23:19:12.384Z,102137.81
2019-04-20T23:21:48.571Z,102140.99
2019-04-20T23:24:13.305Z,102143.27
2019-04-20T23:26:44.289Z,102135.13
2019-04-20T23:29:13.258Z,102143.49
2019-04-20T23:31:49.286Z,102139.63
2019-04-20T23:34:18.777Z,102132.74
2019-04-20T23:36:47.092Z,102132.42
2019-04-20T23:39:13.102Z,102129.84
2019-04-20T23:41:51.675Z,102135.19
2019-04-20T23:44:16.941Z,102125.73
2019-04-20T23:46:45.637Z,102132.36
2019-04-20T23:49:29.078Z,102131.02
2019-04-20T23:52:09.493Z,102129.34
2019-04-20T23:54:26.170Z,102127.64
2019-04-20T23:56:53.634Z,102128.59
2019-04-20T23:59:32.450Z,102127.83
